createdAt,value
2019-05-21T00:03:22.623Z,11.33
2019-05-21T00:06:12.314Z,11.87
2019-05-21T00:08:43.260Z,12.90
2019-05-21T00:11:33.020Z,13.10
2019-05-21T00:14:04.007Z,13.87
2019-05-21T00:16:34.790Z,13.17
2019-05-21T00:19:24.604Z,12.87
2019-05-21T00:24:50.150Z,13.17
2019-05-21T00:27:30.892Z,14.47
2019-05-21T00:30:41.655Z,13.30
2019-05-21T00:33:51.303Z,15.40
2019-05-21T00:37:04.256Z,14.40
2019-05-21T00:40:12.629Z,15.07
2019-05-21T00:43:02.728Z,15.53
2019-05-21T00:45:53.461Z,16.73
2019-05-21T00:48:43.756Z,15.90
2019-05-21T00:51:33.731Z,19.60
2019-05-21T00:54:23.355Z,18.10
2019-05-21T00:57:13.101Z,19.27
2019-05-21T00:59:45.492Z,20.30
2019-05-21T01:02:38.502Z,19.70
2019-05-21T01:05:31.134Z,20.50
2019-05-21T01:08:22.656Z,20.80
2019-05-21T01:11:12.578Z,20.80
2019-05-21T01:14:21.102Z,19.30
2019-05-21T01:17:10.850Z,20.93
2019-05-21T01:20:01.591Z,19.80
2019-05-21T01:22:33.501Z,22.57
2019-05-21T01:25:23.832Z,19.57
2019-05-21T01:28:14.076Z,19.07
2019-05-21T01:31:04.271Z,19.70
2019-05-21T01:33:54.754Z,17.77
2019-05-21T01:36:45.637Z,17.83
2019-05-21T01:39:36.348Z,18.03
2019-05-21T01:42:28.826Z,17.87
2019-05-21T01:45:19.111Z,17.20
2019-05-21T01:51:07.918Z,16.87
2019-05-21T01:53:58.018Z,16.40
2019-05-21T01:56:47.838Z,17.13
2019-05-21T01:59:19.909Z,17.60
2019-05-21T02:02:09.981Z,16.80
2019-05-21T02:05:00.135Z,16.80
2019-05-21T02:07:50.154Z,16.97
2019-05-21T02:10:21.414Z,16.27
2019-05-21T02:12:53.043Z,15.83
2019-05-21T02:15:42.947Z,15.37
2019-05-21T02:18:13.757Z,15.00
2019-05-21T02:21:05.241Z,14.80
2019-05-21T02:23:37.384Z,14.13
2019-05-21T02:26:08.892Z,14.03
2019-05-21T02:28:40.409Z,13.27
2019-05-21T02:31:11.436Z,13.97
2019-05-21T02:33:43.467Z,12.47
2019-05-21T02:36:14.210Z,11.80
2019-05-21T02:39:05.439Z,10.83
2019-05-21T02:41:36.724Z,10.83
2019-05-21T02:44:26.624Z,10.77
2019-05-21T02:47:16.561Z,10.20
2019-05-21T02:53:11.711Z,10.50
2019-05-21T02:56:04.162Z,9.50
2019-05-21T02:58:54.178Z,10.73
2019-05-21T03:02:02.732Z,9.83
2019-05-21T03:04:34.131Z,9.80
2019-05-21T03:07:19.443Z,9.53
2019-05-21T03:10:09.655Z,8.60
2019-05-21T03:12:59.271Z,9.17
2019-05-21T03:15:50.237Z,6.97
2019-05-21T03:18:39.915Z,9.77
2019-05-21T03:21:29.889Z,9.33
2019-05-21T03:24:12.071Z,9.27
2019-05-21T03:26:54.020Z,9.00
2019-05-21T03:29:35.590Z,9.80
2019-05-21T03:32:17.572Z,9.57
2019-05-21T03:34:58.458Z,9.90
2019-05-21T03:37:48.440Z,10.27
2019-05-21T03:40:38.084Z,10.63
2019-05-21T03:43:28.848Z,10.23
2019-05-21T03:46:18.559Z,10.87
2019-05-21T03:49:08.941Z,10.20
2019-05-21T03:51:39.743Z,11.80
2019-05-21T03:54:29.453Z,11.53
2019-05-21T03:57:19.084Z,11.47
2019-05-21T04:00:28.508Z,12.70
2019-05-21T04:03:18.153Z,11.97
2019-05-21T04:09:18.117Z,12.47
2019-05-21T04:12:07.880Z,12.20
2019-05-21T04:15:18.106Z,11.50
2019-05-21T04:18:12.942Z,11.60
2019-05-21T04:21:03.003Z,12.90
2019-05-21T04:23:56.408Z,11.50
2019-05-21T04:26:46.145Z,11.27
2019-05-21T04:29:16.876Z,12.00
2019-05-21T04:32:00.351Z,10.47
2019-05-21T04:34:41.973Z,11.73
2019-05-21T04:37:23.613Z,10.27
2019-05-21T04:39:55.257Z,9.33
2019-05-21T04:42:45.119Z,10.67
2019-05-21T04:45:34.811Z,10.40
2019-05-21T04:48:25.338Z,9.27
2019-05-21T04:51:15.017Z,9.57
2019-05-21T04:54:05.446Z,8.10
2019-05-21T04:56:56.733Z,8.63
2019-05-21T04:59:49.388Z,8.33
2019-05-21T05:02:40.860Z,7.93
2019-05-21T05:05:30.591Z,8.07
2019-05-21T05:08:20.162Z,7.83
2019-05-21T05:10:50.934Z,7.03
2019-05-21T05:13:40.549Z,7.10
2019-05-21T05:16:30.230Z,6.37
2019-05-21T05:19:15.575Z,6.03
2019-05-21T05:21:58.275Z,6.10
2019-05-21T05:24:29.362Z,6.23
2019-05-21T05:27:00.029Z,5.90
2019-05-21T05:29:31.789Z,6.07
2019-05-21T05:32:21.568Z,5.87
2019-05-21T05:34:52.580Z,5.10
2019-05-21T05:37:23.596Z,4.63
2019-05-21T05:39:54.375Z,4.33
2019-05-21T05:42:44.539Z,4.70
2019-05-21T05:45:15.985Z,3.70
2019-05-21T05:47:49.458Z,4.00
2019-05-21T05:50:41.254Z,3.80
2019-05-21T05:53:13.888Z,3.27
2019-05-21T05:56:04.595Z,3.03
2019-05-21T05:58:35.728Z,3.23
2019-05-21T06:01:06.655Z,2.97
2019-05-21T06:03:40.557Z,3.00
2019-05-21T06:06:30.553Z,3.00
2019-05-21T06:09:23.569Z,2.93
2019-05-21T06:11:54.955Z,4.80
2019-05-21T06:14:32.374Z,2.80
2019-05-21T06:17:03.719Z,2.20
2019-05-21T06:22:35.568Z,2.27
2019-05-21T06:25:27.111Z,2.20
2019-05-21T06:28:19.317Z,2.00
2019-05-21T06:30:50.556Z,1.97
2019-05-21T06:33:25.419Z,2.00
2019-05-21T06:35:57.222Z,2.20
2019-05-21T06:38:28.314Z,2.30
2019-05-21T06:41:00.490Z,1.90
2019-05-21T06:43:51.259Z,1.70
2019-05-21T06:46:22.097Z,1.90
2019-05-21T06:49:11.794Z,2.00
2019-05-21T06:52:02.563Z,1.73
2019-05-21T06:54:53.259Z,1.77
2019-05-21T06:57:24.406Z,1.60
2019-05-21T06:59:55.451Z,1.50
2019-05-21T07:02:28.540Z,1.77
2019-05-21T07:05:18.387Z,1.90
2019-05-21T07:07:51.143Z,1.87
2019-05-21T07:10:22.552Z,1.63
2019-05-21T07:12:54.706Z,1.63
2019-05-21T07:15:44.803Z,1.63
2019-05-21T07:18:15.746Z,1.40
2019-05-21T07:20:47.029Z,1.53
2019-05-21T07:23:36.835Z,1.80
2019-05-21T07:26:26.882Z,1.63
2019-05-21T07:28:58.045Z,1.60
2019-05-21T07:31:47.879Z,1.23
2019-05-21T07:34:18.845Z,1.57
2019-05-21T07:36:50.266Z,1.33
2019-05-21T07:39:22.487Z,1.20
2019-05-21T07:44:51.139Z,1.40
2019-05-21T07:47:22.231Z,1.30
2019-05-21T07:49:55.678Z,1.60
2019-05-21T07:52:46.120Z,1.10
2019-05-21T07:55:17.659Z,1.70
2019-05-21T07:57:49.175Z,1.10
2019-05-21T08:00:21.051Z,1.40
2019-05-21T08:02:54.392Z,1.33
2019-05-21T08:05:26.190Z,1.30
2019-05-21T08:14:48.399Z,1.37
2019-05-21T08:17:39.247Z,1.30
2019-05-21T08:20:29.491Z,1.20
2019-05-21T08:23:20.699Z,1.00
2019-05-21T08:26:10.319Z,1.10
2019-05-21T08:28:41.141Z,1.30
2019-05-21T08:31:32.118Z,1.40
2019-05-21T08:34:24.427Z,1.80
2019-05-21T08:36:56.559Z,1.40
2019-05-21T08:39:29.294Z,1.60
2019-05-21T08:42:01.607Z,1.60
2019-05-21T08:44:35.068Z,1.53
2019-05-21T08:47:26.748Z,1.30
2019-05-21T08:49:57.957Z,1.87
2019-05-21T08:52:47.663Z,1.80
2019-05-21T08:55:38.557Z,1.57
2019-05-21T08:58:28.241Z,1.60
2019-05-21T09:01:17.886Z,1.73
2019-05-21T09:04:45.000Z,1.73
2019-05-21T09:07:10.113Z,1.90
2019-05-21T09:09:52.277Z,1.33
2019-05-21T09:12:33.168Z,1.57
2019-05-21T09:15:22.864Z,1.80
2019-05-21T09:17:56.710Z,1.60
2019-05-21T09:20:46.729Z,1.63
2019-05-21T09:23:37.997Z,1.70
2019-05-21T09:26:27.955Z,1.40
2019-05-21T09:31:55.406Z,1.87
2019-05-21T09:37:19.133Z,2.00
2019-05-21T09:39:43.706Z,1.80
2019-05-21T09:42:35.570Z,1.70
2019-05-21T09:45:25.893Z,1.80
2019-05-21T09:48:15.956Z,1.67
2019-05-21T09:50:46.987Z,1.83
2019-05-21T09:53:36.674Z,1.90
2019-05-21T09:56:37.607Z,1.77
2019-05-21T09:59:26.290Z,2.03
2019-05-21T10:04:56.629Z,1.70
2019-05-21T10:07:42.036Z,2.00
2019-05-21T10:13:47.937Z,1.90
2019-05-21T10:16:38.441Z,1.90
2019-05-21T10:19:28.207Z,2.47
2019-05-21T10:22:17.931Z,2.10
2019-05-21T10:24:48.947Z,2.17
2019-05-21T10:27:20.096Z,2.30
2019-05-21T10:30:10.339Z,2.03
2019-05-21T10:32:43.559Z,1.97
2019-05-21T10:35:25.708Z,1.90
2019-05-21T10:38:06.645Z,2.27
2019-05-21T10:40:38.034Z,2.30
2019-05-21T10:49:34.621Z,2.33
2019-05-21T10:52:24.460Z,2.40
2019-05-21T10:55:06.787Z,2.37
2019-05-21T10:57:48.983Z,2.80
2019-05-21T11:00:39.800Z,2.67
2019-05-21T11:03:51.651Z,2.80
2019-05-21T11:06:22.914Z,2.90
2019-05-21T11:08:53.580Z,2.60
2019-05-21T11:11:43.361Z,3.50
2019-05-21T11:14:32.980Z,3.10
2019-05-21T11:17:23.353Z,3.50
2019-05-21T11:20:14.764Z,3.33
2019-05-21T11:23:04.857Z,3.40
2019-05-21T11:25:54.503Z,3.50
2019-05-21T11:28:25.427Z,3.50
2019-05-21T11:30:56.615Z,3.30
2019-05-21T11:33:27.719Z,3.30
2019-05-21T11:36:36.289Z,3.60
2019-05-21T11:39:10.885Z,3.73
2019-05-21T11:42:00.883Z,3.50
2019-05-21T11:44:32.488Z,3.13
2019-05-21T11:47:03.681Z,3.27
2019-05-21T11:49:35.493Z,3.30
2019-05-21T11:52:06.640Z,3.20
2019-05-21T11:54:37.817Z,3.40
2019-05-21T11:57:20.265Z,3.20
2019-05-21T12:00:02.133Z,2.93
2019-05-21T12:02:44.200Z,3.13
2019-05-21T12:05:15.587Z,3.10
2019-05-21T12:07:46.542Z,3.17
2019-05-21T12:10:17.445Z,3.30
2019-05-21T12:13:07.378Z,2.90
2019-05-21T12:15:59.559Z,2.87
2019-05-21T12:18:52.493Z,3.30
2019-05-21T12:21:23.364Z,2.73
2019-05-21T12:23:55.597Z,2.70
2019-05-21T12:26:45.244Z,2.73
2019-05-21T12:29:35.094Z,2.70
2019-05-21T12:32:25.069Z,2.70
2019-05-21T12:34:56.016Z,2.90
2019-05-21T12:37:45.718Z,2.60
2019-05-21T12:40:35.447Z,2.80
2019-05-21T12:43:27.599Z,3.37
2019-05-21T12:46:18.518Z,2.83
2019-05-21T12:48:49.618Z,2.70
2019-05-21T12:51:39.256Z,2.80
2019-05-21T12:54:10.373Z,2.80
2019-05-21T12:56:41.556Z,2.70
2019-05-21T12:59:15.094Z,3.70
2019-05-21T13:01:46.442Z,2.73
2019-05-21T13:04:36.383Z,3.03
2019-05-21T13:07:26.294Z,2.40
2019-05-21T13:10:17.145Z,2.80
2019-05-21T13:13:07.064Z,3.00
2019-05-21T13:15:38.047Z,3.07
2019-05-21T13:18:28.357Z,2.70
2019-05-21T13:20:59.486Z,2.90
2019-05-21T13:23:49.216Z,3.33
2019-05-21T13:26:34.397Z,3.53
2019-05-21T13:29:05.474Z,3.43
2019-05-21T13:31:55.365Z,3.57
2019-05-21T13:34:38.302Z,3.80
2019-05-21T13:40:43.840Z,3.23
2019-05-21T13:43:14.961Z,3.53
2019-05-21T13:46:04.686Z,3.57
2019-05-21T13:48:37.769Z,3.57
2019-05-21T13:51:27.879Z,3.77
2019-05-21T13:53:58.773Z,3.57
2019-05-21T13:56:42.882Z,3.33
2019-05-21T13:59:22.197Z,3.47
2019-05-21T14:01:53.790Z,3.73
2019-05-21T14:07:54.455Z,4.20
2019-05-21T14:13:21.554Z,4.47
2019-05-21T14:15:54.664Z,4.23
2019-05-21T14:18:45.645Z,4.13
2019-05-21T14:21:17.119Z,4.27
2019-05-21T14:23:49.456Z,3.87
2019-05-21T14:26:20.710Z,4.23
2019-05-21T14:28:52.782Z,4.70
2019-05-21T14:31:25.306Z,4.50
2019-05-21T14:33:57.449Z,4.87
2019-05-21T14:36:51.010Z,5.10
2019-05-21T14:39:23.123Z,5.17
2019-05-21T14:42:12.961Z,4.50
2019-05-21T14:47:58.772Z,5.27
2019-05-21T14:50:48.570Z,4.77
2019-05-21T14:53:38.317Z,4.80
2019-05-21T14:56:28.090Z,5.10
2019-05-21T14:59:18.842Z,5.30
2019-05-21T15:02:08.741Z,4.90
2019-05-21T15:04:39.928Z,5.10
2019-05-21T15:07:30.248Z,5.20
2019-05-21T15:10:20.085Z,5.50
2019-05-21T15:12:52.091Z,5.97
2019-05-21T15:15:29.357Z,5.60
2019-05-21T15:18:03.193Z,6.03
2019-05-21T15:20:44.802Z,5.07
2019-05-21T15:23:34.721Z,4.70
2019-05-21T15:26:07.556Z,5.30
2019-05-21T15:28:58.703Z,5.10
2019-05-21T15:31:31.931Z,5.20
2019-05-21T15:34:22.008Z,5.00
2019-05-21T15:37:12.735Z,4.90
2019-05-21T15:40:03.531Z,4.83
2019-05-21T15:42:56.626Z,5.30
2019-05-21T15:48:48.007Z,5.10
2019-05-21T15:51:38.634Z,5.33
2019-05-21T15:54:28.717Z,5.83
2019-05-21T15:57:19.981Z,5.90
2019-05-21T16:00:45.186Z,5.70
2019-05-21T16:03:22.944Z,4.80
2019-05-21T16:09:25.857Z,5.30
2019-05-21T16:12:19.666Z,5.73
2019-05-21T16:15:30.579Z,5.90
2019-05-21T16:18:21.586Z,5.30
2019-05-21T16:21:12.459Z,5.20
2019-05-21T16:24:04.195Z,6.10
2019-05-21T16:27:14.219Z,5.30
2019-05-21T16:32:43.102Z,5.73
2019-05-21T16:35:35.029Z,5.57
2019-05-21T16:38:26.328Z,6.33
2019-05-21T16:41:19.460Z,6.17
2019-05-21T16:44:12.107Z,7.33
2019-05-21T16:46:43.155Z,6.80
2019-05-21T16:49:32.945Z,6.77
2019-05-21T16:52:44.586Z,6.93
2019-05-21T16:58:44.941Z,6.23
2019-05-21T17:01:35.237Z,7.60
2019-05-21T17:04:25.344Z,8.80
2019-05-21T17:07:15.115Z,6.47
2019-05-21T17:10:05.124Z,7.57
2019-05-21T17:16:04.820Z,6.87
2019-05-21T17:18:54.633Z,6.10
2019-05-21T17:24:58.848Z,6.13
2019-05-21T17:27:31.100Z,6.03
2019-05-21T17:33:13.549Z,5.50
2019-05-21T17:35:45.908Z,6.80
2019-05-21T17:38:35.744Z,5.93
2019-05-21T17:44:27.158Z,6.07
2019-05-21T17:47:17.585Z,4.97
2019-05-21T17:50:07.519Z,5.40
2019-05-21T17:52:57.288Z,4.40
2019-05-21T17:55:49.425Z,4.57
2019-05-21T17:58:39.876Z,4.93
2019-05-21T18:01:14.295Z,4.10
2019-05-21T18:04:07.511Z,4.30
2019-05-21T18:09:50.383Z,3.90
2019-05-21T18:12:40.827Z,5.33
2019-05-21T18:15:41.815Z,4.40
2019-05-21T18:18:24.731Z,4.07
2019-05-21T18:20:57.724Z,3.17
2019-05-21T18:23:31.131Z,4.27
2019-05-21T18:26:23.464Z,4.30
2019-05-21T18:28:55.588Z,3.50
2019-05-21T18:31:45.721Z,3.53
2019-05-21T18:34:54.334Z,3.90
2019-05-21T18:37:45.836Z,4.40
2019-05-21T18:40:35.863Z,4.20
2019-05-21T18:43:09.993Z,4.63
2019-05-21T18:46:01.231Z,4.20
2019-05-21T18:48:33.018Z,5.70
2019-05-21T18:51:23.348Z,5.20
2019-05-21T18:54:13.935Z,4.60
2019-05-21T18:57:03.726Z,4.50
2019-05-21T19:02:44.935Z,4.93
2019-05-21T19:05:35.793Z,5.23
2019-05-21T19:08:07.572Z,5.43
2019-05-21T19:10:58.553Z,6.47
2019-05-21T19:13:29.562Z,5.10
2019-05-21T19:16:02.229Z,6.10
2019-05-21T19:18:52.118Z,7.90
2019-05-21T19:21:24.848Z,6.40
2019-05-21T19:24:33.668Z,6.97
2019-05-21T19:27:23.515Z,6.67
2019-05-21T19:30:13.952Z,7.10
2019-05-21T19:33:05.732Z,8.13
2019-05-21T19:35:55.629Z,9.77
2019-05-21T19:38:45.874Z,10.13
2019-05-21T19:41:17.078Z,10.80
2019-05-21T19:44:07.130Z,10.03
2019-05-21T19:46:37.932Z,10.13
2019-05-21T19:49:27.762Z,10.10
2019-05-21T19:52:18.226Z,11.33
2019-05-21T19:55:28.698Z,10.97
2019-05-21T19:58:18.748Z,10.10
2019-05-21T20:06:56.751Z,12.57
2019-05-21T20:09:46.527Z,10.77
2019-05-21T20:12:28.743Z,11.47
2019-05-21T20:15:11.040Z,11.43
2019-05-21T20:18:06.532Z,10.90
2019-05-21T20:20:38.383Z,12.13
2019-05-21T20:26:06.351Z,14.20
2019-05-21T20:28:48.131Z,11.80
2019-05-21T20:31:19.461Z,11.70
2019-05-21T20:36:48.373Z,11.67
2019-05-21T20:48:46.660Z,13.17
2019-05-21T21:03:48.600Z,16.10
2019-05-21T21:06:39.942Z,17.30
2019-05-21T21:09:30.271Z,17.30
2019-05-21T21:12:06.632Z,17.07
2019-05-21T21:15:16.882Z,17.40
2019-05-21T21:18:07.613Z,16.03
2019-05-21T21:23:35.328Z,16.63
2019-05-21T21:26:27.430Z,17.83
2019-05-21T21:29:20.838Z,19.67
2019-05-21T21:35:06.098Z,17.00
2019-05-21T21:37:56.161Z,17.20
2019-05-21T21:40:49.513Z,15.80
2019-05-21T21:43:40.579Z,16.33
2019-05-21T21:46:22.087Z,16.33
2019-05-21T21:48:54.626Z,17.33
2019-05-21T21:51:25.425Z,16.27
2019-05-21T21:54:14.085Z,15.90
2019-05-21T21:56:46.040Z,16.50
2019-05-21T22:06:35.824Z,16.47
2019-05-21T22:15:25.983Z,15.87
2019-05-21T22:17:57.073Z,15.20
2019-05-21T22:20:47.500Z,15.47
2019-05-21T22:23:37.438Z,15.47
2019-05-21T22:29:30.333Z,15.53
2019-05-21T22:34:55.476Z,15.53
2019-05-21T22:40:20.032Z,16.07
2019-05-21T22:42:53.198Z,16.47
2019-05-21T22:45:42.739Z,15.10
2019-05-21T22:48:13.733Z,15.50
2019-05-21T22:51:03.410Z,15.80
2019-05-21T22:53:53.550Z,14.57
2019-05-21T22:56:43.428Z,16.43
2019-05-21T22:59:33.370Z,16.03
2019-05-21T23:02:06.882Z,15.30
2019-05-21T23:04:58.289Z,15.07
2019-05-21T23:07:48.860Z,14.37
2019-05-21T23:10:38.701Z,14.33
2019-05-21T23:13:28.854Z,14.27
2019-05-21T23:16:18.669Z,15.30
2019-05-21T23:18:49.682Z,15.47
2019-05-21T23:27:20.739Z,14.80
2019-05-21T23:30:03.117Z,15.33
2019-05-21T23:32:44.873Z,15.70
2019-05-21T23:35:26.711Z,15.57
2019-05-21T23:38:09.194Z,16.13
2019-05-21T23:40:50.662Z,15.23
2019-05-21T23:46:37.074Z,17.00
2019-05-21T23:49:28.653Z,16.50
2019-05-21T23:55:29.045Z,16.57
2019-05-21T23:58:19.943Z,16.30
